createdAt,value
2018-12-24T00:01:44.110Z,6.10
2018-12-24T00:04:21.593Z,6.10
2018-12-24T00:06:59.100Z,6.10
2018-12-24T00:09:36.584Z,6.10
2018-12-24T00:12:14.092Z,6.10
2018-12-24T00:14:51.583Z,6.10
2018-12-24T00:17:29.078Z,6.10
2018-12-24T00:20:06.562Z,6.00
2018-12-24T00:22:44.067Z,6.10
2018-12-24T00:25:21.597Z,6.10
2018-12-24T00:27:59.078Z,6.00
2018-12-24T00:30:36.580Z,6.00
2018-12-24T00:33:14.055Z,6.00
2018-12-24T00:35:51.554Z,6.00
2018-12-24T00:38:29.037Z,6.00
2018-12-24T00:41:06.562Z,6.00
2018-12-24T00:43:44.050Z,6.00
2018-12-24T00:46:21.547Z,6.00
2018-12-24T00:48:59.020Z,6.00
2018-12-24T00:51:36.526Z,6.00
2018-12-24T00:54:14.017Z,6.00
2018-12-24T00:56:51.528Z,6.00
2018-12-24T00:59:29.023Z,6.00
2018-12-24T01:02:06.524Z,5.90
2018-12-24T01:04:44.008Z,5.90
2018-12-24T01:07:21.536Z,5.90
2018-12-24T01:09:59.041Z,5.90
2018-12-24T01:12:36.545Z,5.90
2018-12-24T01:15:14.006Z,5.80
2018-12-24T01:17:51.538Z,5.80
2018-12-24T01:20:29.024Z,5.80
2018-12-24T01:23:06.520Z,5.80
2018-12-24T01:25:44.044Z,5.80
2018-12-24T01:28:21.528Z,5.80
2018-12-24T01:30:59.031Z,5.80
2018-12-24T01:33:36.791Z,5.80
2018-12-24T01:36:14.293Z,5.80
2018-12-24T01:38:51.776Z,5.90
2018-12-24T01:41:29.267Z,5.90
2018-12-24T01:44:06.746Z,5.80
2018-12-24T01:46:44.264Z,5.80
2018-12-24T01:49:21.743Z,5.80
2018-12-24T01:51:59.248Z,5.80
2018-12-24T01:54:36.810Z,5.80
2018-12-24T01:57:14.319Z,5.70
2018-12-24T01:59:51.808Z,5.80
2018-12-24T02:02:29.361Z,5.70
2018-12-24T02:05:06.950Z,5.70
2018-12-24T02:07:44.445Z,5.70
2018-12-24T02:10:21.937Z,5.70
2018-12-24T02:12:59.451Z,5.70
2018-12-24T02:15:36.930Z,5.70
2018-12-24T02:18:14.461Z,5.70
2018-12-24T02:20:51.977Z,5.70
2018-12-24T02:23:29.508Z,5.70
2018-12-24T02:26:07.008Z,5.70
2018-12-24T02:28:44.524Z,5.60
2018-12-24T02:31:22.034Z,5.70
2018-12-24T02:33:59.503Z,5.70
2018-12-24T02:36:37.018Z,5.60
2018-12-24T02:39:14.505Z,5.60
2018-12-24T02:41:52.018Z,5.60
2018-12-24T02:44:29.571Z,5.60
2018-12-24T02:47:07.098Z,5.60
2018-12-24T02:49:44.581Z,5.60
2018-12-24T02:52:22.078Z,5.60
2018-12-24T02:54:59.557Z,5.60
2018-12-24T02:57:37.057Z,5.60
2018-12-24T03:00:14.536Z,5.70
2018-12-24T03:02:52.061Z,5.70
2018-12-24T03:05:29.536Z,5.60
2018-12-24T03:08:07.037Z,5.60
2018-12-24T03:10:44.876Z,5.60
2018-12-24T03:13:22.380Z,5.60
2018-12-24T03:15:59.861Z,5.60
2018-12-24T03:18:37.681Z,5.60
2018-12-24T03:21:15.173Z,5.60
2018-12-24T03:23:52.684Z,5.60
2018-12-24T03:26:30.191Z,5.60
2018-12-24T03:29:07.944Z,5.60
2018-12-24T03:31:45.458Z,5.60
2018-12-24T03:34:22.943Z,5.60
2018-12-24T03:37:00.457Z,5.60
2018-12-24T03:39:38.059Z,5.60
2018-12-24T03:42:15.575Z,5.60
2018-12-24T03:44:53.069Z,5.60
2018-12-24T03:47:30.577Z,5.60
2018-12-24T03:50:08.189Z,5.60
2018-12-24T03:52:45.701Z,5.60
2018-12-24T03:55:23.184Z,5.60
2018-12-24T03:58:00.692Z,5.60
2018-12-24T04:00:38.354Z,5.60
2018-12-24T04:03:15.861Z,5.60
2018-12-24T04:05:53.339Z,5.60
2018-12-24T04:08:30.841Z,5.60
2018-12-24T04:11:08.875Z,5.60
2018-12-24T04:13:46.383Z,5.60
2018-12-24T04:16:23.910Z,5.70
2018-12-24T04:19:01.400Z,5.70
2018-12-24T04:21:38.917Z,5.70
2018-12-24T04:24:16.437Z,5.70
2018-12-24T04:26:53.927Z,5.70
2018-12-24T04:29:31.449Z,5.70
2018-12-24T04:32:08.951Z,5.70
2018-12-24T04:34:46.716Z,5.70
2018-12-24T04:37:24.536Z,5.80
2018-12-24T04:40:02.056Z,5.80
2018-12-24T04:42:39.546Z,5.80
2018-12-24T04:45:17.022Z,5.80
2018-12-24T04:47:54.527Z,5.80
2018-12-24T04:50:32.019Z,5.80
2018-12-24T04:53:09.527Z,5.90
2018-12-24T04:55:47.362Z,5.90
2018-12-24T04:58:24.871Z,5.90
2018-12-24T05:01:02.395Z,6.00
2018-12-24T05:03:39.961Z,6.00
2018-12-24T05:06:17.506Z,6.00
2018-12-24T05:08:55.027Z,6.00
2018-12-24T05:11:32.504Z,6.00
2018-12-24T05:14:10.059Z,6.00
2018-12-24T05:16:50.060Z,6.10
2018-12-24T05:19:27.558Z,6.10
2018-12-24T05:22:05.074Z,6.10
2018-12-24T05:24:42.582Z,6.00
2018-12-24T05:27:20.059Z,6.00
2018-12-24T05:29:57.564Z,6.00
2018-12-24T05:32:35.075Z,6.00
2018-12-24T05:35:12.583Z,5.90
2018-12-24T05:37:50.105Z,5.90
2018-12-24T05:40:27.622Z,5.80
2018-12-24T05:43:05.123Z,5.80
2018-12-24T05:45:42.615Z,5.80
2018-12-24T05:48:20.123Z,5.80
2018-12-24T05:50:57.621Z,5.80
2018-12-24T05:53:35.135Z,5.80
2018-12-24T05:56:12.616Z,5.80
2018-12-24T05:58:50.124Z,5.70
2018-12-24T06:01:27.624Z,5.60
2018-12-24T06:04:05.159Z,5.60
2018-12-24T06:06:42.649Z,5.50
2018-12-24T06:09:20.169Z,5.50
2018-12-24T06:11:57.657Z,5.50
2018-12-24T06:14:35.260Z,5.50
2018-12-24T06:17:13.030Z,5.40
2018-12-24T06:19:50.536Z,5.40
2018-12-24T06:22:28.037Z,5.30
2018-12-24T06:25:05.579Z,5.30
2018-12-24T06:27:43.076Z,5.30
2018-12-24T06:30:20.573Z,5.30
2018-12-24T06:32:58.448Z,5.30
2018-12-24T06:35:35.937Z,5.30
2018-12-24T06:38:13.449Z,5.30
2018-12-24T06:40:50.926Z,5.30
2018-12-24T06:43:28.493Z,5.20
2018-12-24T06:46:05.972Z,5.30
2018-12-24T06:48:43.514Z,5.20
2018-12-24T06:51:20.973Z,5.20
2018-12-24T06:53:58.489Z,5.20
2018-12-24T06:56:35.972Z,5.20
2018-12-24T06:59:13.477Z,5.20
2018-12-24T07:01:50.955Z,5.20
2018-12-24T07:04:28.468Z,5.20
2018-12-24T07:07:05.959Z,5.20
2018-12-24T07:09:43.471Z,5.20
2018-12-24T07:12:20.956Z,5.20
2018-12-24T07:14:58.474Z,5.20
2018-12-24T07:17:35.961Z,5.20
2018-12-24T07:20:13.465Z,5.10
2018-12-24T07:22:50.980Z,5.10
2018-12-24T07:25:28.499Z,5.10
2018-12-24T07:28:05.990Z,5.10
2018-12-24T07:30:43.498Z,5.10
2018-12-24T07:33:21.014Z,5.20
2018-12-24T07:35:58.507Z,5.20
2018-12-24T07:38:36.036Z,5.20
2018-12-24T07:41:13.529Z,5.20
2018-12-24T07:43:51.045Z,5.20
2018-12-24T07:46:28.527Z,5.30
2018-12-24T07:49:06.055Z,5.20
2018-12-24T07:51:43.552Z,5.30
2018-12-24T07:54:21.060Z,5.30
2018-12-24T07:56:58.557Z,5.40
2018-12-24T07:59:36.101Z,5.30
2018-12-24T08:02:13.582Z,5.30
2018-12-24T08:04:51.205Z,5.20
2018-12-24T08:07:28.576Z,5.20
2018-12-24T08:10:06.159Z,5.20
2018-12-24T08:12:43.643Z,5.10
2018-12-24T08:15:21.167Z,5.10
2018-12-24T08:17:58.666Z,5.10
2018-12-24T08:20:36.205Z,5.00
2018-12-24T08:23:13.714Z,5.00
2018-12-24T08:25:51.238Z,4.90
2018-12-24T08:28:28.727Z,4.90
2018-12-24T08:31:06.240Z,4.90
2018-12-24T08:33:43.735Z,4.80
2018-12-24T08:36:21.249Z,4.80
2018-12-24T08:38:59.016Z,4.70
2018-12-24T08:41:36.505Z,4.70
2018-12-24T08:44:14.042Z,4.80
2018-12-24T08:46:51.542Z,4.80
2018-12-24T08:49:29.072Z,4.80
2018-12-24T08:52:06.557Z,4.80
2018-12-24T08:54:44.068Z,4.80
2018-12-24T08:57:21.558Z,4.80
2018-12-24T08:59:59.084Z,4.70
2018-12-24T09:02:36.585Z,4.60
2018-12-24T09:05:14.107Z,4.60
2018-12-24T09:07:51.581Z,4.70
2018-12-24T09:10:29.122Z,4.80
2018-12-24T09:13:06.606Z,4.80
2018-12-24T09:15:44.108Z,4.80
2018-12-24T09:18:21.612Z,4.90
2018-12-24T09:20:59.128Z,5.00
2018-12-24T09:23:36.656Z,5.10
2018-12-24T09:26:14.173Z,5.10
2018-12-24T09:28:51.679Z,5.10
2018-12-24T09:31:29.192Z,5.20
2018-12-24T09:34:06.657Z,5.30
2018-12-24T09:36:44.178Z,5.30
2018-12-24T09:39:21.701Z,5.30
2018-12-24T09:41:59.191Z,5.30
2018-12-24T09:44:36.707Z,5.30
2018-12-24T09:47:14.260Z,5.30
2018-12-24T09:49:51.774Z,5.40
2018-12-24T09:52:29.276Z,5.30
2018-12-24T09:55:06.985Z,5.30
2018-12-24T09:57:44.461Z,5.30
2018-12-24T10:00:22.117Z,5.30
2018-12-24T10:03:27.997Z,5.40
2018-12-24T10:06:34.901Z,5.50
2018-12-24T10:09:15.654Z,5.60
2018-12-24T10:11:53.160Z,5.60
2018-12-24T10:14:30.647Z,5.60
2018-12-24T10:17:08.160Z,5.70
2018-12-24T10:19:45.696Z,5.80
2018-12-24T10:22:23.204Z,5.80
2018-12-24T10:25:00.736Z,5.70
2018-12-24T10:27:38.221Z,5.50
2018-12-24T10:30:15.727Z,5.40
2018-12-24T10:32:53.238Z,5.40
2018-12-24T10:35:30.748Z,5.40
2018-12-24T10:38:08.228Z,5.40
2018-12-24T10:41:53.571Z,5.50
2018-12-24T10:44:31.191Z,5.50
2018-12-24T10:47:08.755Z,5.50
2018-12-24T10:49:46.266Z,5.40
2018-12-24T10:52:23.796Z,5.40
2018-12-24T10:55:01.312Z,5.30
2018-12-24T10:57:38.789Z,5.30
2018-12-24T11:00:16.344Z,5.30
2018-12-24T11:02:53.853Z,5.30
2018-12-24T11:05:31.367Z,5.20
2018-12-24T11:08:14.739Z,5.10
2018-12-24T11:10:58.977Z,5.00
2018-12-24T11:13:36.470Z,4.90
2018-12-24T11:16:13.962Z,4.90
2018-12-24T11:18:51.441Z,4.90
2018-12-24T11:21:30.090Z,4.90
2018-12-24T11:24:07.781Z,5.00
2018-12-24T11:26:45.420Z,5.00
2018-12-24T11:29:22.925Z,5.00
2018-12-24T11:32:01.536Z,5.00
2018-12-24T11:34:39.144Z,4.90
2018-12-24T11:37:17.048Z,4.90
2018-12-24T11:39:54.611Z,4.90
2018-12-24T11:42:32.719Z,4.90
2018-12-24T11:45:10.982Z,4.90
2018-12-24T11:47:48.837Z,4.80
2018-12-24T11:50:26.617Z,4.80
2018-12-24T11:53:04.693Z,4.70
2018-12-24T11:55:42.616Z,4.70
2018-12-24T11:58:20.753Z,4.60
2018-12-24T12:00:58.744Z,4.60
2018-12-24T12:03:36.639Z,4.60
2018-12-24T12:06:19.682Z,4.60
2018-12-24T12:08:52.369Z,4.70
2018-12-24T12:11:30.632Z,4.70
2018-12-24T12:14:08.344Z,4.70
2018-12-24T12:16:46.195Z,4.70
2018-12-24T12:19:24.166Z,4.60
2018-12-24T12:22:01.934Z,4.50
2018-12-24T12:24:39.673Z,4.40
2018-12-24T12:27:17.260Z,4.40
2018-12-24T12:29:54.948Z,4.40
2018-12-24T12:32:32.465Z,4.30
2018-12-24T12:35:10.276Z,4.30
2018-12-24T12:37:47.858Z,4.20
2018-12-24T12:40:25.356Z,4.10
2018-12-24T12:43:02.901Z,4.10
2018-12-24T12:45:40.390Z,4.00
2018-12-24T12:48:21.429Z,4.00
2018-12-24T12:50:57.861Z,3.90
2018-12-24T12:53:35.372Z,3.90
2018-12-24T12:56:12.910Z,3.90
2018-12-24T12:58:50.426Z,3.90
2018-12-24T13:01:27.936Z,3.90
2018-12-24T13:04:05.513Z,3.80
2018-12-24T13:06:42.956Z,3.80
2018-12-24T13:09:20.450Z,3.70
2018-12-24T13:11:57.969Z,3.70
2018-12-24T13:14:35.463Z,3.60
2018-12-24T13:17:12.969Z,3.70
2018-12-24T13:19:50.486Z,3.70
2018-12-24T13:22:28.019Z,3.70
2018-12-24T13:25:05.516Z,3.70
2018-12-24T13:27:43.038Z,3.70
2018-12-24T13:30:20.537Z,3.70
2018-12-24T13:32:58.039Z,3.70
2018-12-24T13:35:35.544Z,3.70
2018-12-24T13:38:13.057Z,3.70
2018-12-24T13:40:50.553Z,3.70
2018-12-24T13:43:28.070Z,3.70
2018-12-24T13:46:08.263Z,3.70
2018-12-24T13:48:43.998Z,3.60
2018-12-24T13:51:21.510Z,3.60
2018-12-24T13:53:59.068Z,3.60
2018-12-24T13:56:36.687Z,3.60
2018-12-24T13:59:14.188Z,3.60
2018-12-24T14:01:51.706Z,3.70
2018-12-24T14:04:29.278Z,3.80
2018-12-24T14:07:07.094Z,3.80
2018-12-24T14:09:44.604Z,3.80
2018-12-24T14:12:22.103Z,3.80
2018-12-24T14:14:59.684Z,3.70
2018-12-24T14:17:38.022Z,3.70
2018-12-24T14:20:17.573Z,3.70
2018-12-24T14:22:58.364Z,3.70
2018-12-24T14:25:38.346Z,3.70
2018-12-24T14:28:14.252Z,3.70
2018-12-24T14:30:51.752Z,3.70
2018-12-24T14:33:29.269Z,3.70
2018-12-24T14:36:07.091Z,3.70
2018-12-24T14:38:44.599Z,3.60
2018-12-24T14:41:22.108Z,3.60
2018-12-24T14:43:59.678Z,3.60
2018-12-24T14:46:37.220Z,3.60
2018-12-24T14:49:14.784Z,3.60
2018-12-24T14:51:52.304Z,3.60
2018-12-24T14:54:29.819Z,3.60
2018-12-24T14:57:07.351Z,3.60
2018-12-24T14:59:44.883Z,3.60
2018-12-24T15:02:22.450Z,3.60
2018-12-24T15:04:59.943Z,3.60
2018-12-24T15:07:37.533Z,3.60
2018-12-24T15:10:15.040Z,3.60
2018-12-24T15:12:52.564Z,3.60
2018-12-24T15:15:30.046Z,3.50
2018-12-24T15:18:07.544Z,3.50
2018-12-24T15:20:45.026Z,3.50
2018-12-24T15:23:22.549Z,3.50
2018-12-24T15:26:00.035Z,3.50
2018-12-24T15:28:37.540Z,3.50
2018-12-24T15:31:15.030Z,3.50
2018-12-24T15:33:52.561Z,3.40
2018-12-24T15:36:32.149Z,3.40
2018-12-24T15:39:08.577Z,3.40
2018-12-24T15:41:46.591Z,3.30
2018-12-24T15:44:26.380Z,3.30
2018-12-24T15:47:05.722Z,3.20
2018-12-24T15:49:43.965Z,3.20
2018-12-24T15:52:21.843Z,3.30
2018-12-24T15:54:59.844Z,3.30
2018-12-24T15:57:37.661Z,3.30
2018-12-24T16:00:16.839Z,3.30
2018-12-24T16:02:56.684Z,3.30
2018-12-24T16:05:34.687Z,3.30
2018-12-24T16:08:12.520Z,3.30
2018-12-24T16:10:50.289Z,3.40
2018-12-24T16:13:29.118Z,3.30
2018-12-24T16:16:10.280Z,3.40
2018-12-24T16:18:47.885Z,3.40
2018-12-24T16:21:25.561Z,3.40
2018-12-24T16:24:03.046Z,3.40
2018-12-24T16:26:40.591Z,3.40
2018-12-24T16:29:18.246Z,3.40
2018-12-24T16:31:55.847Z,3.40
2018-12-24T16:34:33.435Z,3.40
2018-12-24T16:37:11.023Z,3.40
2018-12-24T16:39:48.571Z,3.40
2018-12-24T16:42:26.137Z,3.40
2018-12-24T16:45:04.970Z,3.40
2018-12-24T16:47:43.439Z,3.30
2018-12-24T16:50:21.718Z,3.30
2018-12-24T16:52:59.218Z,3.30
2018-12-24T16:55:36.718Z,3.30
2018-12-24T16:58:14.244Z,3.30
2018-12-24T17:00:51.722Z,3.30
2018-12-24T17:03:29.271Z,3.20
2018-12-24T17:06:06.766Z,3.10
2018-12-24T17:08:44.289Z,2.90
2018-12-24T17:11:21.797Z,2.90
2018-12-24T17:13:59.413Z,2.80
2018-12-24T17:16:37.205Z,2.80
2018-12-24T17:19:14.744Z,2.80
2018-12-24T17:21:52.221Z,2.80
2018-12-24T17:24:29.774Z,2.90
2018-12-24T17:27:07.270Z,2.90
2018-12-24T17:29:44.803Z,3.00
2018-12-24T17:32:22.298Z,3.10
2018-12-24T17:34:59.829Z,3.10
2018-12-24T17:37:37.325Z,3.10
2018-12-24T17:40:14.878Z,3.10
2018-12-24T17:42:52.357Z,3.10
2018-12-24T17:45:29.849Z,3.10
2018-12-24T17:48:07.353Z,3.20
2018-12-24T17:50:44.853Z,3.20
2018-12-24T17:53:22.368Z,3.20
2018-12-24T17:56:00.022Z,3.30
2018-12-24T17:58:37.550Z,3.30
2018-12-24T18:01:15.033Z,3.30
2018-12-24T18:03:52.568Z,3.30
2018-12-24T18:06:30.063Z,3.30
2018-12-24T18:09:09.435Z,3.30
2018-12-24T18:11:46.910Z,3.30
2018-12-24T18:14:24.426Z,3.40
2018-12-24T18:17:01.938Z,3.40
2018-12-24T18:19:39.457Z,3.40
2018-12-24T18:22:17.353Z,3.40
2018-12-24T18:24:54.877Z,3.40
2018-12-24T18:27:32.371Z,3.40
2018-12-24T18:30:11.392Z,3.40
2018-12-24T18:32:48.875Z,3.40
2018-12-24T18:35:26.413Z,3.40
2018-12-24T18:38:03.913Z,3.50
2018-12-24T18:40:41.474Z,3.50
2018-12-24T18:43:18.975Z,3.50
2018-12-24T18:45:56.641Z,3.50
2018-12-24T18:48:34.125Z,3.40
2018-12-24T18:51:11.642Z,3.50
2018-12-24T18:53:49.154Z,3.50
2018-12-24T18:56:26.674Z,3.50
2018-12-24T18:59:04.216Z,3.50
2018-12-24T19:01:41.741Z,3.50
2018-12-24T19:04:19.262Z,3.50
2018-12-24T19:06:56.756Z,3.40
2018-12-24T19:09:34.264Z,3.50
2018-12-24T19:12:12.696Z,3.50
2018-12-24T19:14:50.218Z,3.50
2018-12-24T19:17:27.699Z,3.50
2018-12-24T19:20:05.264Z,3.40
2018-12-24T19:22:42.868Z,3.40
2018-12-24T19:25:20.748Z,3.40
2018-12-24T19:27:58.230Z,3.40
2018-12-24T19:30:35.771Z,3.40
2018-12-24T19:33:13.255Z,3.40
2018-12-24T19:35:50.795Z,3.40
2018-12-24T19:38:28.330Z,3.40
2018-12-24T19:41:05.852Z,3.40
2018-12-24T19:43:43.353Z,3.40
2018-12-24T19:46:20.881Z,3.40
2018-12-24T19:48:58.367Z,3.30
2018-12-24T19:51:35.887Z,3.30
2018-12-24T19:54:13.414Z,3.30
2018-12-24T19:56:50.893Z,3.20
2018-12-24T19:59:28.415Z,3.20
2018-12-24T20:02:05.917Z,3.20
2018-12-24T20:04:43.468Z,3.30
2018-12-24T20:07:20.974Z,3.30
2018-12-24T20:09:58.475Z,3.30
2018-12-24T20:12:36.024Z,3.30
2018-12-24T20:15:13.484Z,3.30
2018-12-24T20:17:58.085Z,3.30
2018-12-24T20:20:28.507Z,3.30
2018-12-24T20:23:06.009Z,3.30
2018-12-24T20:25:43.521Z,3.30
2018-12-24T20:28:21.011Z,3.30
2018-12-24T20:30:58.534Z,3.30
2018-12-24T20:33:36.053Z,3.30
2018-12-24T20:36:15.756Z,3.20
2018-12-24T20:38:53.227Z,3.20
2018-12-24T20:41:30.729Z,3.20
2018-12-24T20:44:08.203Z,3.10
2018-12-24T20:46:45.699Z,3.10
2018-12-24T20:49:23.195Z,3.20
2018-12-24T20:52:00.714Z,3.20
2018-12-24T20:54:38.654Z,3.20
2018-12-24T20:57:15.722Z,3.30
2018-12-24T20:59:54.074Z,3.30
2018-12-24T21:02:32.929Z,3.30
2018-12-24T21:05:11.301Z,3.30
2018-12-24T21:07:48.830Z,3.40
2018-12-24T21:10:26.443Z,3.40
2018-12-24T21:13:03.953Z,3.40
2018-12-24T21:15:41.986Z,3.40
2018-12-24T21:18:19.523Z,3.40
2018-12-24T21:20:57.096Z,3.50
2018-12-24T21:23:34.710Z,3.50
2018-12-24T21:26:12.228Z,3.50
2018-12-24T21:28:49.762Z,3.50
2018-12-24T21:31:27.368Z,3.60
2018-12-24T21:34:04.870Z,3.60
2018-12-24T21:36:42.450Z,3.60
2018-12-24T21:39:19.982Z,3.60
2018-12-24T21:41:57.532Z,3.60
2018-12-24T21:44:35.017Z,3.60
2018-12-24T21:47:12.522Z,3.60
2018-12-24T21:49:50.022Z,3.60
2018-12-24T21:52:27.532Z,3.70
2018-12-24T21:55:05.038Z,3.70
2018-12-24T21:57:43.201Z,3.70
2018-12-24T22:00:21.077Z,3.70
2018-12-24T22:02:58.581Z,3.70
2018-12-24T22:05:36.406Z,3.70
2018-12-24T22:08:13.902Z,3.70
2018-12-24T22:10:51.413Z,3.70
2018-12-24T22:13:28.910Z,3.70
2018-12-24T22:16:06.424Z,3.70
2018-12-24T22:18:43.884Z,3.70
2018-12-24T22:21:21.409Z,3.70
2018-12-24T22:23:58.912Z,3.70
2018-12-24T22:26:36.730Z,3.60
2018-12-24T22:29:14.221Z,3.60
2018-12-24T22:31:52.008Z,3.60
2018-12-24T22:34:29.487Z,3.60
2018-12-24T22:37:06.995Z,3.70
2018-12-24T22:39:44.473Z,3.70
2018-12-24T22:42:22.130Z,3.70
2018-12-24T22:44:59.618Z,3.70
2018-12-24T22:47:37.140Z,3.70
2018-12-24T22:50:14.615Z,3.60
2018-12-24T22:52:52.462Z,3.60
2018-12-24T22:55:29.954Z,3.60
2018-12-24T22:58:10.447Z,3.60
2018-12-24T23:00:49.830Z,3.60
2018-12-24T23:03:27.313Z,3.60
2018-12-24T23:06:04.828Z,3.50
2018-12-24T23:08:42.320Z,3.50
2018-12-24T23:11:19.828Z,3.50
2018-12-24T23:13:57.302Z,3.50
2018-12-24T23:16:34.832Z,3.60
2018-12-24T23:19:12.307Z,3.60
2018-12-24T23:21:49.810Z,3.60
2018-12-24T23:24:27.408Z,3.60
2018-12-24T23:27:04.912Z,3.60
2018-12-24T23:29:42.478Z,3.70
2018-12-24T23:32:19.973Z,3.70
2018-12-24T23:34:57.454Z,3.70
2018-12-24T23:37:35.254Z,3.70
2018-12-24T23:40:12.726Z,3.70
2018-12-24T23:42:50.600Z,3.70
2018-12-24T23:45:28.079Z,3.80
2018-12-24T23:48:05.587Z,3.80
2018-12-24T23:50:43.200Z,3.80
2018-12-24T23:53:20.717Z,3.80
2018-12-24T23:55:58.242Z,3.70
2018-12-24T23:58:36.875Z,3.70
